sensor_id;sensor_type;location;lat;lon;timestamp;P1;durP1;ratioP1;P2;durP2;ratioP2
3789;SDS011;1910;49.042;9.028;2022-12-07T00:01:07;9.65;;;5.80;;
3789;SDS011;1910;49.042;9.028;2022-12-07T00:03:33;13.95;;;6.55;;
3789;SDS011;1910;49.042;9.028;2022-12-07T00:05:59;16.63;;;6.72;;
3789;SDS011;1910;49.042;9.028;2022-12-07T00:08:26;11.07;;;6.32;;
3789;SDS011;1910;49.042;9.028;2022-12-07T00:10:51;14.17;;;6.07;;
3789;SDS011;1910;49.042;9.028;2022-12-07T00:13:19;13.17;;;7.43;;
3789;SDS011;1910;49.042;9.028;2022-12-07T00:15:45;13.10;;;5.82;;
3789;SDS011;1910;49.042;9.028;2022-12-07T00:18:10;10.43;;;5.93;;
3789;SDS011;1910;49.042;9.028;2022-12-07T00:20:36;13.10;;;6.33;;
3789;SDS011;1910;49.042;9.028;2022-12-07T00:23:02;15.30;;;7.13;;
3789;SDS011;1910;49.042;9.028;2022-12-07T00:25:27;9.40;;;6.30;;
3789;SDS011;1910;49.042;9.028;2022-12-07T00:27:54;11.10;;;6.65;;
3789;SDS011;1910;49.042;9.028;2022-12-07T00:30:21;13.63;;;7.18;;
3789;SDS011;1910;49.042;9.028;2022-12-07T00:32:47;9.95;;;7.18;;
3789;SDS011;1910;49.042;9.028;2022-12-07T00:35:13;11.60;;;6.63;;
3789;SDS011;1910;49.042;9.028;2022-12-07T00:37:39;12.10;;;7.53;;
3789;SDS011;1910;49.042;9.028;2022-12-07T00:40:05;11.63;;;8.17;;
3789;SDS011;1910;49.042;9.028;2022-12-07T00:42:31;12.65;;;7.45;;
3789;SDS011;1910;49.042;9.028;2022-12-07T00:44:56;12.87;;;7.67;;
3789;SDS011;1910;49.042;9.028;2022-12-07T00:47:22;13.60;;;7.47;;
3789;SDS011;1910;49.042;9.028;2022-12-07T00:49:47;14.43;;;8.40;;
3789;SDS011;1910;49.042;9.028;2022-12-07T00:52:13;13.93;;;7.00;;
3789;SDS011;1910;49.042;9.028;2022-12-07T00:54:39;11.47;;;7.00;;
3789;SDS011;1910;49.042;9.028;2022-12-07T00:57:05;14.43;;;8.70;;
3789;SDS011;1910;49.042;9.028;2022-12-07T00:59:30;13.17;;;8.43;;
3789;SDS011;1910;49.042;9.028;2022-12-07T01:01:56;20.20;;;8.53;;
3789;SDS011;1910;49.042;9.028;2022-12-07T01:04:21;17.80;;;9.30;;
3789;SDS011;1910;49.042;9.028;2022-12-07T01:06:47;16.33;;;9.23;;
3789;SDS011;1910;49.042;9.028;2022-12-07T01:09:13;19.13;;;9.50;;
3789;SDS011;1910;49.042;9.028;2022-12-07T01:11:38;11.90;;;7.73;;
3789;SDS011;1910;49.042;9.028;2022-12-07T01:14:04;15.60;;;8.80;;
3789;SDS011;1910;49.042;9.028;2022-12-07T01:16:30;15.27;;;8.73;;
3789;SDS011;1910;49.042;9.028;2022-12-07T01:18:57;14.80;;;7.85;;
3789;SDS011;1910;49.042;9.028;2022-12-07T01:21:25;13.25;;;8.60;;
3789;SDS011;1910;49.042;9.028;2022-12-07T01:23:52;15.90;;;8.30;;
3789;SDS011;1910;49.042;9.028;2022-12-07T01:26:19;16.40;;;8.70;;
3789;SDS011;1910;49.042;9.028;2022-12-07T01:28:46;16.00;;;8.45;;
3789;SDS011;1910;49.042;9.028;2022-12-07T01:31:13;17.57;;;8.57;;
3789;SDS011;1910;49.042;9.028;2022-12-07T01:33:41;18.05;;;8.52;;
3789;SDS011;1910;49.042;9.028;2022-12-07T01:36:13;16.13;;;9.27;;
3789;SDS011;1910;49.042;9.028;2022-12-07T01:38:41;14.90;;;8.38;;
3789;SDS011;1910;49.042;9.028;2022-12-07T01:41:08;15.18;;;8.20;;
3789;SDS011;1910;49.042;9.028;2022-12-07T01:43:34;13.90;;;7.95;;
3789;SDS011;1910;49.042;9.028;2022-12-07T01:46:01;15.40;;;8.40;;
3789;SDS011;1910;49.042;9.028;2022-12-07T01:48:28;13.18;;;8.00;;
3789;SDS011;1910;49.042;9.028;2022-12-07T01:51:00;13.90;;;7.72;;
3789;SDS011;1910;49.042;9.028;2022-12-07T01:53:29;11.70;;;7.07;;
3789;SDS011;1910;49.042;9.028;2022-12-07T01:55:56;14.75;;;7.88;;
3789;SDS011;1910;49.042;9.028;2022-12-07T01:58:23;20.13;;;8.80;;
3789;SDS011;1910;49.042;9.028;2022-12-07T02:00:49;16.77;;;8.43;;
3789;SDS011;1910;49.042;9.028;2022-12-07T02:03:17;12.20;;;7.87;;
3789;SDS011;1910;49.042;9.028;2022-12-07T02:05:49;20.40;;;9.95;;
3789;SDS011;1910;49.042;9.028;2022-12-07T02:08:16;23.10;;;15.27;;
3789;SDS011;1910;49.042;9.028;2022-12-07T02:10:42;20.45;;;16.08;;
3789;SDS011;1910;49.042;9.028;2022-12-07T02:13:15;15.73;;;11.17;;
3789;SDS011;1910;49.042;9.028;2022-12-07T02:15:48;19.67;;;9.85;;
3789;SDS011;1910;49.042;9.028;2022-12-07T02:18:22;17.33;;;10.45;;
3789;SDS011;1910;49.042;9.028;2022-12-07T02:23:30;20.23;;;11.30;;
3789;SDS011;1910;49.042;9.028;2022-12-07T02:29:11;19.52;;;10.45;;
3789;SDS011;1910;49.042;9.028;2022-12-07T02:31:56;20.60;;;12.38;;
3789;SDS011;1910;49.042;9.028;2022-12-07T02:34:53;17.65;;;10.27;;
3789;SDS011;1910;49.042;9.028;2022-12-07T02:37:34;23.45;;;12.05;;
3789;SDS011;1910;49.042;9.028;2022-12-07T02:42:36;19.55;;;11.35;;
3789;SDS011;1910;49.042;9.028;2022-12-07T02:45:07;21.15;;;12.60;;
3789;SDS011;1910;49.042;9.028;2022-12-07T02:47:35;21.60;;;12.00;;
3789;SDS011;1910;49.042;9.028;2022-12-07T02:50:03;21.67;;;11.00;;
3789;SDS011;1910;49.042;9.028;2022-12-07T02:52:31;20.25;;;11.35;;
3789;SDS011;1910;49.042;9.028;2022-12-07T02:54:56;16.33;;;9.33;;
3789;SDS011;1910;49.042;9.028;2022-12-07T02:57:35;21.17;;;11.43;;
3789;SDS011;1910;49.042;9.028;2022-12-07T03:00:24;22.55;;;12.35;;
3789;SDS011;1910;49.042;9.028;2022-12-07T03:08:11;18.50;;;9.73;;
3789;SDS011;1910;49.042;9.028;2022-12-07T03:13:25;22.80;;;11.32;;
3789;SDS011;1910;49.042;9.028;2022-12-07T03:16:15;21.38;;;11.48;;
3789;SDS011;1910;49.042;9.028;2022-12-07T03:18:57;22.15;;;12.60;;
3789;SDS011;1910;49.042;9.028;2022-12-07T03:21:31;18.92;;;10.85;;
3789;SDS011;1910;49.042;9.028;2022-12-07T03:24:01;18.10;;;10.77;;
3789;SDS011;1910;49.042;9.028;2022-12-07T03:26:33;22.05;;;10.57;;
3789;SDS011;1910;49.042;9.028;2022-12-07T03:29:02;17.98;;;10.00;;
3789;SDS011;1910;49.042;9.028;2022-12-07T03:31:40;21.23;;;8.55;;
3789;SDS011;1910;49.042;9.028;2022-12-07T03:34:18;14.73;;;7.50;;
3789;SDS011;1910;49.042;9.028;2022-12-07T03:37:11;13.35;;;7.70;;
3789;SDS011;1910;49.042;9.028;2022-12-07T03:39:48;17.00;;;8.80;;
3789;SDS011;1910;49.042;9.028;2022-12-07T03:42:33;18.60;;;8.70;;
3789;SDS011;1910;49.042;9.028;2022-12-07T03:45:00;17.83;;;8.83;;
3789;SDS011;1910;49.042;9.028;2022-12-07T03:50:38;19.33;;;11.35;;
3789;SDS011;1910;49.042;9.028;2022-12-07T03:53:15;21.08;;;12.63;;
3789;SDS011;1910;49.042;9.028;2022-12-07T03:55:47;23.05;;;15.85;;
3789;SDS011;1910;49.042;9.028;2022-12-07T03:58:19;18.25;;;10.98;;
3789;SDS011;1910;49.042;9.028;2022-12-07T04:00:47;20.40;;;11.07;;
3789;SDS011;1910;49.042;9.028;2022-12-07T04:03:13;17.10;;;10.30;;
3789;SDS011;1910;49.042;9.028;2022-12-07T04:05:39;17.50;;;10.13;;
3789;SDS011;1910;49.042;9.028;2022-12-07T04:08:05;16.35;;;9.25;;
3789;SDS011;1910;49.042;9.028;2022-12-07T04:10:31;18.03;;;9.10;;
3789;SDS011;1910;49.042;9.028;2022-12-07T04:12:57;13.60;;;9.03;;
3789;SDS011;1910;49.042;9.028;2022-12-07T04:15:22;19.57;;;10.23;;
3789;SDS011;1910;49.042;9.028;2022-12-07T04:17:48;17.00;;;8.80;;
3789;SDS011;1910;49.042;9.028;2022-12-07T04:20:13;19.47;;;9.40;;
3789;SDS011;1910;49.042;9.028;2022-12-07T04:22:39;19.43;;;11.07;;
3789;SDS011;1910;49.042;9.028;2022-12-07T04:25:04;20.83;;;12.73;;
3789;SDS011;1910;49.042;9.028;2022-12-07T04:27:30;17.60;;;9.10;;
3789;SDS011;1910;49.042;9.028;2022-12-07T04:29:56;13.77;;;7.53;;
3789;SDS011;1910;49.042;9.028;2022-12-07T04:32:22;16.90;;;7.93;;
3789;SDS011;1910;49.042;9.028;2022-12-07T04:34:48;14.25;;;8.43;;
3789;SDS011;1910;49.042;9.028;2022-12-07T04:37:13;14.90;;;7.67;;
3789;SDS011;1910;49.042;9.028;2022-12-07T04:39:39;13.60;;;7.20;;
3789;SDS011;1910;49.042;9.028;2022-12-07T04:42:05;17.00;;;8.90;;
3789;SDS011;1910;49.042;9.028;2022-12-07T04:44:30;13.60;;;9.40;;
3789;SDS011;1910;49.042;9.028;2022-12-07T04:46:56;16.10;;;9.50;;
3789;SDS011;1910;49.042;9.028;2022-12-07T04:49:22;13.70;;;8.30;;
3789;SDS011;1910;49.042;9.028;2022-12-07T04:51:48;11.50;;;7.50;;
3789;SDS011;1910;49.042;9.028;2022-12-07T04:54:14;11.20;;;7.60;;
3789;SDS011;1910;49.042;9.028;2022-12-07T04:56:41;14.27;;;7.15;;
3789;SDS011;1910;49.042;9.028;2022-12-07T04:59:07;12.75;;;6.60;;
3789;SDS011;1910;49.042;9.028;2022-12-07T05:01:33;8.20;;;5.35;;
3789;SDS011;1910;49.042;9.028;2022-12-07T05:03:59;12.23;;;6.90;;
3789;SDS011;1910;49.042;9.028;2022-12-07T05:06:25;13.50;;;6.78;;
3789;SDS011;1910;49.042;9.028;2022-12-07T05:08:51;15.53;;;6.17;;
3789;SDS011;1910;49.042;9.028;2022-12-07T05:11:17;11.80;;;5.60;;
3789;SDS011;1910;49.042;9.028;2022-12-07T05:14:02;10.45;;;5.65;;
3789;SDS011;1910;49.042;9.028;2022-12-07T05:16:28;11.60;;;6.13;;
3789;SDS011;1910;49.042;9.028;2022-12-07T05:18:54;8.80;;;6.83;;
3789;SDS011;1910;49.042;9.028;2022-12-07T05:21:20;8.35;;;5.00;;
3789;SDS011;1910;49.042;9.028;2022-12-07T05:23:46;10.50;;;5.93;;
3789;SDS011;1910;49.042;9.028;2022-12-07T05:26:12;12.00;;;5.70;;
3789;SDS011;1910;49.042;9.028;2022-12-07T05:28:37;8.63;;;6.53;;
3789;SDS011;1910;49.042;9.028;2022-12-07T05:31:03;16.23;;;9.00;;
3789;SDS011;1910;49.042;9.028;2022-12-07T05:33:29;16.00;;;10.18;;
3789;SDS011;1910;49.042;9.028;2022-12-07T05:35:54;12.87;;;7.43;;
3789;SDS011;1910;49.042;9.028;2022-12-07T05:38:20;11.70;;;6.73;;
3789;SDS011;1910;49.042;9.028;2022-12-07T05:40:45;13.90;;;7.33;;
3789;SDS011;1910;49.042;9.028;2022-12-07T05:43:11;12.60;;;6.60;;
3789;SDS011;1910;49.042;9.028;2022-12-07T05:45:37;14.70;;;9.50;;
3789;SDS011;1910;49.042;9.028;2022-12-07T05:48:02;19.13;;;11.90;;
3789;SDS011;1910;49.042;9.028;2022-12-07T05:50:28;13.87;;;8.80;;
3789;SDS011;1910;49.042;9.028;2022-12-07T05:52:53;10.37;;;6.20;;
3789;SDS011;1910;49.042;9.028;2022-12-07T05:55:19;10.83;;;6.47;;
3789;SDS011;1910;49.042;9.028;2022-12-07T05:57:45;10.70;;;7.23;;
3789;SDS011;1910;49.042;9.028;2022-12-07T06:00:31;22.23;;;11.75;;
3789;SDS011;1910;49.042;9.028;2022-12-07T06:02:57;10.35;;;7.90;;
3789;SDS011;1910;49.042;9.028;2022-12-07T06:05:22;19.67;;;10.83;;
3789;SDS011;1910;49.042;9.028;2022-12-07T06:07:48;10.17;;;6.90;;
3789;SDS011;1910;49.042;9.028;2022-12-07T06:10:13;14.93;;;6.57;;
3789;SDS011;1910;49.042;9.028;2022-12-07T06:12:39;12.27;;;6.07;;
3789;SDS011;1910;49.042;9.028;2022-12-07T06:15:07;9.20;;;5.82;;
3789;SDS011;1910;49.042;9.028;2022-12-07T06:17:33;9.52;;;6.07;;
3789;SDS011;1910;49.042;9.028;2022-12-07T06:19:59;11.70;;;7.67;;
3789;SDS011;1910;49.042;9.028;2022-12-07T06:22:24;11.93;;;7.80;;
3789;SDS011;1910;49.042;9.028;2022-12-07T06:24:50;12.80;;;8.00;;
3789;SDS011;1910;49.042;9.028;2022-12-07T06:27:15;15.10;;;6.03;;
3789;SDS011;1910;49.042;9.028;2022-12-07T06:29:41;11.87;;;6.00;;
3789;SDS011;1910;49.042;9.028;2022-12-07T06:32:06;10.20;;;5.77;;
3789;SDS011;1910;49.042;9.028;2022-12-07T06:34:32;12.73;;;9.37;;
3789;SDS011;1910;49.042;9.028;2022-12-07T06:36:58;12.13;;;8.10;;
3789;SDS011;1910;49.042;9.028;2022-12-07T06:39:24;7.17;;;4.60;;
3789;SDS011;1910;49.042;9.028;2022-12-07T06:41:51;9.65;;;6.30;;
3789;SDS011;1910;49.042;9.028;2022-12-07T06:44:17;13.07;;;6.50;;
3789;SDS011;1910;49.042;9.028;2022-12-07T06:46:43;12.82;;;6.60;;
3789;SDS011;1910;49.042;9.028;2022-12-07T06:49:09;8.13;;;4.03;;
3789;SDS011;1910;49.042;9.028;2022-12-07T06:51:35;8.17;;;5.20;;
3789;SDS011;1910;49.042;9.028;2022-12-07T06:54:04;10.95;;;5.38;;
3789;SDS011;1910;49.042;9.028;2022-12-07T06:56:30;9.27;;;5.95;;
3789;SDS011;1910;49.042;9.028;2022-12-07T06:58:55;8.53;;;7.00;;
3789;SDS011;1910;49.042;9.028;2022-12-07T07:01:21;11.57;;;6.43;;
3789;SDS011;1910;49.042;9.028;2022-12-07T07:03:47;15.40;;;6.20;;
3789;SDS011;1910;49.042;9.028;2022-12-07T07:06:13;11.80;;;6.00;;
3789;SDS011;1910;49.042;9.028;2022-12-07T07:08:38;13.80;;;8.50;;
3789;SDS011;1910;49.042;9.028;2022-12-07T07:11:04;13.20;;;6.83;;
3789;SDS011;1910;49.042;9.028;2022-12-07T07:13:31;8.13;;;4.57;;
3789;SDS011;1910;49.042;9.028;2022-12-07T07:15:57;8.50;;;5.70;;
3789;SDS011;1910;49.042;9.028;2022-12-07T07:18:23;10.23;;;5.87;;
3789;SDS011;1910;49.042;9.028;2022-12-07T07:20:50;14.00;;;7.80;;
3789;SDS011;1910;49.042;9.028;2022-12-07T07:23:16;14.18;;;8.57;;
3789;SDS011;1910;49.042;9.028;2022-12-07T07:25:41;8.53;;;5.87;;
3789;SDS011;1910;49.042;9.028;2022-12-07T07:28:07;9.60;;;6.43;;
3789;SDS011;1910;49.042;9.028;2022-12-07T07:30:33;10.27;;;6.60;;
3789;SDS011;1910;49.042;9.028;2022-12-07T07:32:59;11.40;;;5.80;;
3789;SDS011;1910;49.042;9.028;2022-12-07T07:35:26;17.92;;;7.00;;
3789;SDS011;1910;49.042;9.028;2022-12-07T07:37:52;14.27;;;8.50;;
3789;SDS011;1910;49.042;9.028;2022-12-07T07:40:19;11.25;;;7.38;;
3789;SDS011;1910;49.042;9.028;2022-12-07T07:42:48;11.80;;;6.47;;
3789;SDS011;1910;49.042;9.028;2022-12-07T07:45:14;13.20;;;5.35;;
3789;SDS011;1910;49.042;9.028;2022-12-07T07:47:40;14.17;;;6.10;;
3789;SDS011;1910;49.042;9.028;2022-12-07T07:50:06;12.17;;;6.10;;
3789;SDS011;1910;49.042;9.028;2022-12-07T07:52:32;10.30;;;8.20;;
3789;SDS011;1910;49.042;9.028;2022-12-07T07:54:57;13.13;;;7.20;;
3789;SDS011;1910;49.042;9.028;2022-12-07T07:57:23;12.53;;;6.30;;
3789;SDS011;1910;49.042;9.028;2022-12-07T07:59:48;12.73;;;6.30;;
3789;SDS011;1910;49.042;9.028;2022-12-07T08:02:15;10.20;;;6.03;;
3789;SDS011;1910;49.042;9.028;2022-12-07T08:04:42;12.63;;;6.35;;
3789;SDS011;1910;49.042;9.028;2022-12-07T08:07:08;11.60;;;6.53;;
3789;SDS011;1910;49.042;9.028;2022-12-07T08:09:34;11.63;;;6.63;;
3789;SDS011;1910;49.042;9.028;2022-12-07T08:12:00;8.93;;;5.47;;
3789;SDS011;1910;49.042;9.028;2022-12-07T08:14:25;8.87;;;5.00;;
3789;SDS011;1910;49.042;9.028;2022-12-07T08:16:52;9.93;;;5.78;;
3789;SDS011;1910;49.042;9.028;2022-12-07T08:19:18;13.17;;;5.20;;
3789;SDS011;1910;49.042;9.028;2022-12-07T08:21:43;12.10;;;6.50;;
3789;SDS011;1910;49.042;9.028;2022-12-07T08:24:09;9.97;;;5.40;;
3789;SDS011;1910;49.042;9.028;2022-12-07T08:26:34;10.27;;;5.73;;
3789;SDS011;1910;49.042;9.028;2022-12-07T08:29:00;11.33;;;3.77;;
3789;SDS011;1910;49.042;9.028;2022-12-07T08:31:25;8.17;;;4.70;;
3789;SDS011;1910;49.042;9.028;2022-12-07T08:33:52;9.60;;;5.10;;
3789;SDS011;1910;49.042;9.028;2022-12-07T08:36:18;6.60;;;4.17;;
3789;SDS011;1910;49.042;9.028;2022-12-07T08:38:44;5.50;;;4.00;;
3789;SDS011;1910;49.042;9.028;2022-12-07T08:41:10;7.47;;;4.30;;
3789;SDS011;1910;49.042;9.028;2022-12-07T08:43:35;7.40;;;4.33;;
3789;SDS011;1910;49.042;9.028;2022-12-07T08:49:04;7.85;;;4.35;;
3789;SDS011;1910;49.042;9.028;2022-12-07T08:51:48;8.57;;;4.78;;
3789;SDS011;1910;49.042;9.028;2022-12-07T08:54:15;8.33;;;2.90;;
3789;SDS011;1910;49.042;9.028;2022-12-07T08:56:42;8.57;;;5.13;;
3789;SDS011;1910;49.042;9.028;2022-12-07T08:59:09;5.63;;;4.30;;
3789;SDS011;1910;49.042;9.028;2022-12-07T09:01:35;11.27;;;4.90;;
3789;SDS011;1910;49.042;9.028;2022-12-07T09:04:01;9.00;;;4.50;;
3789;SDS011;1910;49.042;9.028;2022-12-07T09:06:26;8.13;;;4.20;;
3789;SDS011;1910;49.042;9.028;2022-12-07T09:08:53;4.82;;;3.50;;
3789;SDS011;1910;49.042;9.028;2022-12-07T09:11:22;5.15;;;3.25;;
3789;SDS011;1910;49.042;9.028;2022-12-07T09:13:47;3.90;;;3.37;;
3789;SDS011;1910;49.042;9.028;2022-12-07T09:16:13;6.43;;;4.53;;
3789;SDS011;1910;49.042;9.028;2022-12-07T09:18:39;4.50;;;2.70;;
3789;SDS011;1910;49.042;9.028;2022-12-07T09:21:04;4.83;;;2.70;;
3789;SDS011;1910;49.042;9.028;2022-12-07T09:23:30;6.10;;;3.97;;
3789;SDS011;1910;49.042;9.028;2022-12-07T09:25:58;4.80;;;3.20;;
3789;SDS011;1910;49.042;9.028;2022-12-07T09:28:30;5.38;;;3.63;;
3789;SDS011;1910;49.042;9.028;2022-12-07T09:30:56;5.78;;;3.20;;
3789;SDS011;1910;49.042;9.028;2022-12-07T09:33:21;7.33;;;3.50;;
3789;SDS011;1910;49.042;9.028;2022-12-07T09:35:48;2.90;;;2.50;;
3789;SDS011;1910;49.042;9.028;2022-12-07T09:38:15;6.55;;;3.55;;
3789;SDS011;1910;49.042;9.028;2022-12-07T09:40:41;4.28;;;2.33;;
3789;SDS011;1910;49.042;9.028;2022-12-07T09:43:15;3.15;;;2.75;;
3789;SDS011;1910;49.042;9.028;2022-12-07T09:45:44;4.18;;;2.60;;
3789;SDS011;1910;49.042;9.028;2022-12-07T09:48:19;4.38;;;2.70;;
3789;SDS011;1910;49.042;9.028;2022-12-07T09:50:47;5.55;;;3.22;;
3789;SDS011;1910;49.042;9.028;2022-12-07T09:53:15;6.20;;;2.92;;
3789;SDS011;1910;49.042;9.028;2022-12-07T09:55:51;3.40;;;3.10;;
3789;SDS011;1910;49.042;9.028;2022-12-07T09:58:19;4.45;;;3.33;;
3789;SDS011;1910;49.042;9.028;2022-12-07T10:00:48;6.07;;;3.58;;
3789;SDS011;1910;49.042;9.028;2022-12-07T10:03:28;6.70;;;3.28;;
3789;SDS011;1910;49.042;9.028;2022-12-07T10:05:54;7.07;;;3.88;;
3789;SDS011;1910;49.042;9.028;2022-12-07T10:08:20;4.45;;;3.00;;
3789;SDS011;1910;49.042;9.028;2022-12-07T10:10:47;8.47;;;4.80;;
3789;SDS011;1910;49.042;9.028;2022-12-07T10:13:19;9.40;;;5.13;;
3789;SDS011;1910;49.042;9.028;2022-12-07T10:15:54;7.18;;;5.18;;
3789;SDS011;1910;49.042;9.028;2022-12-07T10:21:16;6.22;;;3.70;;
3789;SDS011;1910;49.042;9.028;2022-12-07T10:26:40;6.70;;;3.92;;
3789;SDS011;1910;49.042;9.028;2022-12-07T10:34:52;7.20;;;3.65;;
3789;SDS011;1910;49.042;9.028;2022-12-07T10:37:56;6.78;;;4.05;;
3789;SDS011;1910;49.042;9.028;2022-12-07T10:40:24;10.07;;;5.65;;
3789;SDS011;1910;49.042;9.028;2022-12-07T10:43:00;8.05;;;4.43;;
3789;SDS011;1910;49.042;9.028;2022-12-07T10:45:27;8.15;;;4.85;;
3789;SDS011;1910;49.042;9.028;2022-12-07T10:50:55;6.85;;;4.60;;
3789;SDS011;1910;49.042;9.028;2022-12-07T10:59:23;8.15;;;4.95;;
3789;SDS011;1910;49.042;9.028;2022-12-07T11:07:49;11.60;;;6.15;;
3789;SDS011;1910;49.042;9.028;2022-12-07T11:10:38;11.30;;;7.38;;
3789;SDS011;1910;49.042;9.028;2022-12-07T11:16:21;7.43;;;5.45;;
3789;SDS011;1910;49.042;9.028;2022-12-07T11:21:27;10.40;;;5.45;;
3789;SDS011;1910;49.042;9.028;2022-12-07T11:24:16;10.73;;;5.55;;
3789;SDS011;1910;49.042;9.028;2022-12-07T11:32:05;10.32;;;6.40;;
3789;SDS011;1910;49.042;9.028;2022-12-07T11:35:08;9.90;;;5.95;;
3789;SDS011;1910;49.042;9.028;2022-12-07T11:37:47;8.27;;;5.70;;
3789;SDS011;1910;49.042;9.028;2022-12-07T11:40:27;11.63;;;6.85;;
3789;SDS011;1910;49.042;9.028;2022-12-07T11:42:58;10.32;;;4.75;;
3789;SDS011;1910;49.042;9.028;2022-12-07T11:45:30;14.55;;;7.45;;
3789;SDS011;1910;49.042;9.028;2022-12-07T11:50:32;13.37;;;7.37;;
3789;SDS011;1910;49.042;9.028;2022-12-07T11:55:52;12.82;;;7.28;;
3789;SDS011;1910;49.042;9.028;2022-12-07T12:00:55;11.95;;;5.90;;
3789;SDS011;1910;49.042;9.028;2022-12-07T12:03:45;13.73;;;6.45;;
3789;SDS011;1910;49.042;9.028;2022-12-07T12:06:12;13.70;;;6.10;;
3789;SDS011;1910;49.042;9.028;2022-12-07T12:08:39;10.38;;;6.57;;
3789;SDS011;1910;49.042;9.028;2022-12-07T12:14:35;10.13;;;6.15;;
3789;SDS011;1910;49.042;9.028;2022-12-07T12:17:08;9.57;;;6.28;;
3789;SDS011;1910;49.042;9.028;2022-12-07T12:22:46;8.65;;;5.80;;
3789;SDS011;1910;49.042;9.028;2022-12-07T12:25:24;14.10;;;6.13;;
3789;SDS011;1910;49.042;9.028;2022-12-07T12:27:54;14.55;;;7.82;;
3789;SDS011;1910;49.042;9.028;2022-12-07T12:44:01;10.50;;;6.68;;
3789;SDS011;1910;49.042;9.028;2022-12-07T12:51:49;9.85;;;6.32;;
3789;SDS011;1910;49.042;9.028;2022-12-07T12:54:22;11.57;;;6.55;;
3789;SDS011;1910;49.042;9.028;2022-12-07T13:02:24;13.52;;;7.45;;
3789;SDS011;1910;49.042;9.028;2022-12-07T13:15:43;9.70;;;6.32;;
3789;SDS011;1910;49.042;9.028;2022-12-07T13:24:10;9.35;;;6.40;;
3789;SDS011;1910;49.042;9.028;2022-12-07T13:31:36;12.07;;;7.47;;
3789;SDS011;1910;49.042;9.028;2022-12-07T13:34:03;14.60;;;7.35;;
3789;SDS011;1910;49.042;9.028;2022-12-07T13:36:34;15.38;;;7.35;;
3789;SDS011;1910;49.042;9.028;2022-12-07T13:39:19;14.43;;;6.80;;
3789;SDS011;1910;49.042;9.028;2022-12-07T13:41:51;13.30;;;6.85;;
3789;SDS011;1910;49.042;9.028;2022-12-07T13:44:19;9.80;;;6.28;;
3789;SDS011;1910;49.042;9.028;2022-12-07T13:46:57;10.00;;;4.40;;
3789;SDS011;1910;49.042;9.028;2022-12-07T13:49:45;13.02;;;6.95;;
3789;SDS011;1910;49.042;9.028;2022-12-07T13:52:19;15.95;;;5.88;;
3789;SDS011;1910;49.042;9.028;2022-12-07T13:54:58;16.70;;;8.95;;
3789;SDS011;1910;49.042;9.028;2022-12-07T13:57:39;13.63;;;7.97;;
3789;SDS011;1910;49.042;9.028;2022-12-07T14:00:13;15.75;;;7.57;;
3789;SDS011;1910;49.042;9.028;2022-12-07T14:02:58;15.65;;;9.32;;
3789;SDS011;1910;49.042;9.028;2022-12-07T14:05:27;12.75;;;8.30;;
3789;SDS011;1910;49.042;9.028;2022-12-07T14:10:22;16.20;;;8.73;;
3789;SDS011;1910;49.042;9.028;2022-12-07T14:12:53;24.05;;;13.15;;
3789;SDS011;1910;49.042;9.028;2022-12-07T14:15:20;17.40;;;10.20;;
3789;SDS011;1910;49.042;9.028;2022-12-07T14:17:51;19.90;;;9.27;;
3789;SDS011;1910;49.042;9.028;2022-12-07T14:20:35;19.70;;;8.57;;
3789;SDS011;1910;49.042;9.028;2022-12-07T14:23:05;19.30;;;9.43;;
3789;SDS011;1910;49.042;9.028;2022-12-07T14:25:49;16.98;;;9.75;;
3789;SDS011;1910;49.042;9.028;2022-12-07T14:30:59;19.17;;;9.93;;
3789;SDS011;1910;49.042;9.028;2022-12-07T14:33:25;13.30;;;8.30;;
3789;SDS011;1910;49.042;9.028;2022-12-07T14:35:51;15.60;;;7.77;;
3789;SDS011;1910;49.042;9.028;2022-12-07T14:38:23;21.80;;;10.60;;
3789;SDS011;1910;49.042;9.028;2022-12-07T14:40:50;22.73;;;9.95;;
3789;SDS011;1910;49.042;9.028;2022-12-07T14:43:17;16.65;;;9.43;;
3789;SDS011;1910;49.042;9.028;2022-12-07T14:45:44;26.15;;;10.80;;
3789;SDS011;1910;49.042;9.028;2022-12-07T14:48:11;21.47;;;10.27;;
3789;SDS011;1910;49.042;9.028;2022-12-07T14:50:38;20.80;;;9.63;;
3789;SDS011;1910;49.042;9.028;2022-12-07T14:53:16;19.17;;;10.43;;
3789;SDS011;1910;49.042;9.028;2022-12-07T14:55:43;22.13;;;10.50;;
3789;SDS011;1910;49.042;9.028;2022-12-07T14:58:13;23.10;;;9.80;;
3789;SDS011;1910;49.042;9.028;2022-12-07T15:00:40;25.45;;;13.18;;
3789;SDS011;1910;49.042;9.028;2022-12-07T15:03:06;23.83;;;14.57;;
3789;SDS011;1910;49.042;9.028;2022-12-07T15:05:32;22.77;;;12.50;;
3789;SDS011;1910;49.042;9.028;2022-12-07T15:07:58;30.02;;;13.70;;
3789;SDS011;1910;49.042;9.028;2022-12-07T15:10:25;21.37;;;10.63;;
3789;SDS011;1910;49.042;9.028;2022-12-07T15:12:57;25.95;;;12.25;;
3789;SDS011;1910;49.042;9.028;2022-12-07T15:15:47;21.48;;;11.98;;
3789;SDS011;1910;49.042;9.028;2022-12-07T15:18:14;24.13;;;11.93;;
3789;SDS011;1910;49.042;9.028;2022-12-07T15:20:39;28.93;;;14.27;;
3789;SDS011;1910;49.042;9.028;2022-12-07T15:23:05;23.50;;;13.00;;
3789;SDS011;1910;49.042;9.028;2022-12-07T15:25:31;23.00;;;13.18;;
3789;SDS011;1910;49.042;9.028;2022-12-07T15:27:57;21.60;;;12.10;;
3789;SDS011;1910;49.042;9.028;2022-12-07T15:30:23;25.63;;;12.43;;
3789;SDS011;1910;49.042;9.028;2022-12-07T15:32:49;24.87;;;13.13;;
3789;SDS011;1910;49.042;9.028;2022-12-07T15:35:15;20.58;;;12.38;;
3789;SDS011;1910;49.042;9.028;2022-12-07T15:37:41;26.33;;;12.27;;
3789;SDS011;1910;49.042;9.028;2022-12-07T15:40:07;25.83;;;13.27;;
3789;SDS011;1910;49.042;9.028;2022-12-07T15:42:34;26.33;;;13.07;;
3789;SDS011;1910;49.042;9.028;2022-12-07T15:45:01;29.85;;;12.32;;
3789;SDS011;1910;49.042;9.028;2022-12-07T15:47:30;28.40;;;13.15;;
3789;SDS011;1910;49.042;9.028;2022-12-07T15:49:56;27.80;;;12.85;;
3789;SDS011;1910;49.042;9.028;2022-12-07T15:52:22;28.07;;;12.87;;
3789;SDS011;1910;49.042;9.028;2022-12-07T15:54:48;18.60;;;10.70;;
3789;SDS011;1910;49.042;9.028;2022-12-07T15:57:14;27.90;;;13.30;;
3789;SDS011;1910;49.042;9.028;2022-12-07T15:59:39;21.67;;;10.33;;
3789;SDS011;1910;49.042;9.028;2022-12-07T16:02:05;23.60;;;12.33;;
3789;SDS011;1910;49.042;9.028;2022-12-07T16:04:30;17.73;;;7.27;;
3789;SDS011;1910;49.042;9.028;2022-12-07T16:06:56;24.67;;;11.63;;
3789;SDS011;1910;49.042;9.028;2022-12-07T16:09:22;19.05;;;9.65;;
3789;SDS011;1910;49.042;9.028;2022-12-07T16:11:48;24.03;;;10.60;;
3789;SDS011;1910;49.042;9.028;2022-12-07T16:14:15;17.85;;;9.43;;
3789;SDS011;1910;49.042;9.028;2022-12-07T16:16:41;18.13;;;7.83;;
3789;SDS011;1910;49.042;9.028;2022-12-07T16:19:07;24.97;;;11.77;;
3789;SDS011;1910;49.042;9.028;2022-12-07T16:21:33;33.45;;;14.75;;
3789;SDS011;1910;49.042;9.028;2022-12-07T16:24:00;26.23;;;11.57;;
3789;SDS011;1910;49.042;9.028;2022-12-07T16:26:26;25.70;;;11.03;;
3789;SDS011;1910;49.042;9.028;2022-12-07T16:28:52;21.97;;;10.50;;
3789;SDS011;1910;49.042;9.028;2022-12-07T16:31:22;16.98;;;10.93;;
3789;SDS011;1910;49.042;9.028;2022-12-07T16:33:49;25.75;;;13.05;;
3789;SDS011;1910;49.042;9.028;2022-12-07T16:36:17;21.38;;;11.40;;
3789;SDS011;1910;49.042;9.028;2022-12-07T16:38:43;21.13;;;10.90;;
3789;SDS011;1910;49.042;9.028;2022-12-07T16:41:09;20.43;;;11.30;;
3789;SDS011;1910;49.042;9.028;2022-12-07T16:43:37;26.50;;;13.40;;
3789;SDS011;1910;49.042;9.028;2022-12-07T16:46:03;21.30;;;10.68;;
3789;SDS011;1910;49.042;9.028;2022-12-07T16:48:29;30.20;;;15.40;;
3789;SDS011;1910;49.042;9.028;2022-12-07T16:50:56;26.57;;;13.07;;
3789;SDS011;1910;49.042;9.028;2022-12-07T16:53:22;15.80;;;8.82;;
3789;SDS011;1910;49.042;9.028;2022-12-07T16:55:49;24.50;;;13.45;;
3789;SDS011;1910;49.042;9.028;2022-12-07T16:58:16;27.58;;;13.55;;
3789;SDS011;1910;49.042;9.028;2022-12-07T17:00:42;24.83;;;12.98;;
3789;SDS011;1910;49.042;9.028;2022-12-07T17:03:09;23.88;;;13.38;;
3789;SDS011;1910;49.042;9.028;2022-12-07T17:05:41;28.50;;;12.65;;
3789;SDS011;1910;49.042;9.028;2022-12-07T17:08:08;23.42;;;14.07;;
3789;SDS011;1910;49.042;9.028;2022-12-07T17:10:35;25.27;;;11.90;;
3789;SDS011;1910;49.042;9.028;2022-12-07T17:13:04;25.77;;;12.65;;
3789;SDS011;1910;49.042;9.028;2022-12-07T17:15:57;33.53;;;16.77;;